sensor_id;sensor_type;location;lat;lon;timestamp;P1;durP1;ratioP1;P2;durP2;ratioP2
84345;SDS011;74709;53.128;18.020;2023-12-20T00:00:41;3.90;;;3.50;;
84345;SDS011;74709;53.128;18.020;2023-12-20T00:02:02;6.00;;;3.40;;
84345;SDS011;74709;53.128;18.020;2023-12-20T00:03:04;4.90;;;3.30;;
84345;SDS011;74709;53.128;18.020;2023-12-20T00:04:06;4.70;;;3.10;;
84345;SDS011;74709;53.128;18.020;2023-12-20T00:05:07;5.00;;;4.30;;
84345;SDS011;74709;53.128;18.020;2023-12-20T00:06:09;4.20;;;3.10;;
84345;SDS011;74709;53.128;18.020;2023-12-20T00:07:10;3.60;;;3.00;;
84345;SDS011;74709;53.128;18.020;2023-12-20T00:08:12;4.70;;;3.90;;
84345;SDS011;74709;53.128;18.020;2023-12-20T00:09:13;4.70;;;3.70;;
84345;SDS011;74709;53.128;18.020;2023-12-20T00:10:14;4.00;;;2.90;;
84345;SDS011;74709;53.128;18.020;2023-12-20T00:11:16;3.70;;;3.20;;
84345;SDS011;74709;53.128;18.020;2023-12-20T00:12:17;4.40;;;3.10;;
84345;SDS011;74709;53.128;18.020;2023-12-20T00:13:18;5.00;;;3.10;;
84345;SDS011;74709;53.128;18.020;2023-12-20T00:14:20;4.40;;;3.40;;
84345;SDS011;74709;53.128;18.020;2023-12-20T00:15:21;3.30;;;2.90;;
84345;SDS011;74709;53.128;18.020;2023-12-20T00:16:22;3.30;;;3.00;;
84345;SDS011;74709;53.128;18.020;2023-12-20T00:17:24;4.40;;;3.30;;
84345;SDS011;74709;53.128;18.020;2023-12-20T00:18:25;4.30;;;3.00;;
84345;SDS011;74709;53.128;18.020;2023-12-20T00:19:27;4.30;;;3.10;;
84345;SDS011;74709;53.128;18.020;2023-12-20T00:20:28;4.10;;;3.00;;
84345;SDS011;74709;53.128;18.020;2023-12-20T00:21:29;5.80;;;3.70;;
84345;SDS011;74709;53.128;18.020;2023-12-20T00:22:31;3.10;;;2.40;;
84345;SDS011;74709;53.128;18.020;2023-12-20T00:23:32;3.30;;;2.70;;
84345;SDS011;74709;53.128;18.020;2023-12-20T00:24:33;3.70;;;3.00;;
84345;SDS011;74709;53.128;18.020;2023-12-20T00:25:35;4.30;;;3.10;;
84345;SDS011;74709;53.128;18.020;2023-12-20T00:26:36;3.50;;;2.40;;
84345;SDS011;74709;53.128;18.020;2023-12-20T00:27:37;4.10;;;3.10;;
84345;SDS011;74709;53.128;18.020;2023-12-20T00:28:39;3.20;;;2.60;;
84345;SDS011;74709;53.128;18.020;2023-12-20T00:29:40;3.10;;;2.70;;
84345;SDS011;74709;53.128;18.020;2023-12-20T00:30:44;4.10;;;3.10;;
84345;SDS011;74709;53.128;18.020;2023-12-20T00:31:45;4.30;;;3.40;;
84345;SDS011;74709;53.128;18.020;2023-12-20T00:32:46;3.60;;;2.80;;
84345;SDS011;74709;53.128;18.020;2023-12-20T00:33:48;5.30;;;3.40;;
84345;SDS011;74709;53.128;18.020;2023-12-20T00:34:49;4.30;;;3.30;;
84345;SDS011;74709;53.128;18.020;2023-12-20T00:35:51;4.20;;;3.40;;
84345;SDS011;74709;53.128;18.020;2023-12-20T00:36:52;3.30;;;2.90;;
84345;SDS011;74709;53.128;18.020;2023-12-20T00:37:53;3.70;;;2.90;;
84345;SDS011;74709;53.128;18.020;2023-12-20T00:38:55;4.80;;;3.10;;
84345;SDS011;74709;53.128;18.020;2023-12-20T00:39:56;4.00;;;3.10;;
84345;SDS011;74709;53.128;18.020;2023-12-20T00:40:57;4.30;;;3.50;;
84345;SDS011;74709;53.128;18.020;2023-12-20T00:41:59;4.60;;;3.80;;
84345;SDS011;74709;53.128;18.020;2023-12-20T00:43:00;4.60;;;3.50;;
84345;SDS011;74709;53.128;18.020;2023-12-20T00:44:01;6.30;;;3.40;;
84345;SDS011;74709;53.128;18.020;2023-12-20T00:45:04;5.00;;;3.40;;
84345;SDS011;74709;53.128;18.020;2023-12-20T00:46:06;4.80;;;3.60;;
84345;SDS011;74709;53.128;18.020;2023-12-20T00:47:07;4.20;;;3.10;;
84345;SDS011;74709;53.128;18.020;2023-12-20T00:48:08;4.70;;;3.20;;
84345;SDS011;74709;53.128;18.020;2023-12-20T00:49:10;4.00;;;3.60;;
84345;SDS011;74709;53.128;18.020;2023-12-20T00:50:11;4.40;;;3.30;;
84345;SDS011;74709;53.128;18.020;2023-12-20T00:51:13;5.50;;;3.70;;
84345;SDS011;74709;53.128;18.020;2023-12-20T00:52:15;4.60;;;3.50;;
84345;SDS011;74709;53.128;18.020;2023-12-20T00:53:18;4.70;;;3.70;;
84345;SDS011;74709;53.128;18.020;2023-12-20T00:54:19;3.80;;;3.50;;
84345;SDS011;74709;53.128;18.020;2023-12-20T00:55:21;6.40;;;4.10;;
84345;SDS011;74709;53.128;18.020;2023-12-20T00:56:22;5.30;;;3.80;;
84345;SDS011;74709;53.128;18.020;2023-12-20T00:57:23;5.00;;;3.50;;
84345;SDS011;74709;53.128;18.020;2023-12-20T00:58:25;4.40;;;3.40;;
84345;SDS011;74709;53.128;18.020;2023-12-20T00:59:26;5.90;;;3.60;;
84345;SDS011;74709;53.128;18.020;2023-12-20T01:00:27;4.50;;;3.50;;
84345;SDS011;74709;53.128;18.020;2023-12-20T01:01:29;4.90;;;3.90;;
84345;SDS011;74709;53.128;18.020;2023-12-20T01:02:30;4.80;;;3.80;;
84345;SDS011;74709;53.128;18.020;2023-12-20T01:03:31;6.00;;;4.10;;
84345;SDS011;74709;53.128;18.020;2023-12-20T01:04:33;5.80;;;4.80;;
84345;SDS011;74709;53.128;18.020;2023-12-20T01:05:34;5.10;;;3.60;;
84345;SDS011;74709;53.128;18.020;2023-12-20T01:06:35;6.10;;;3.80;;
84345;SDS011;74709;53.128;18.020;2023-12-20T01:07:37;6.90;;;4.40;;
84345;SDS011;74709;53.128;18.020;2023-12-20T01:08:38;5.00;;;3.50;;
84345;SDS011;74709;53.128;18.020;2023-12-20T01:09:40;5.70;;;4.30;;
84345;SDS011;74709;53.128;18.020;2023-12-20T01:10:41;5.40;;;4.20;;
84345;SDS011;74709;53.128;18.020;2023-12-20T01:11:42;4.10;;;3.60;;
84345;SDS011;74709;53.128;18.020;2023-12-20T01:12:44;5.50;;;4.20;;
84345;SDS011;74709;53.128;18.020;2023-12-20T01:13:45;5.60;;;4.10;;
84345;SDS011;74709;53.128;18.020;2023-12-20T01:14:46;5.70;;;3.90;;
84345;SDS011;74709;53.128;18.020;2023-12-20T01:15:48;7.00;;;4.30;;
84345;SDS011;74709;53.128;18.020;2023-12-20T01:16:49;5.30;;;3.70;;
84345;SDS011;74709;53.128;18.020;2023-12-20T01:17:51;5.00;;;3.60;;
84345;SDS011;74709;53.128;18.020;2023-12-20T01:18:52;5.20;;;4.10;;
84345;SDS011;74709;53.128;18.020;2023-12-20T01:19:54;6.00;;;4.40;;
84345;SDS011;74709;53.128;18.020;2023-12-20T01:20:55;6.80;;;4.70;;
84345;SDS011;74709;53.128;18.020;2023-12-20T01:21:56;5.20;;;3.90;;
84345;SDS011;74709;53.128;18.020;2023-12-20T01:22:58;5.60;;;4.20;;
84345;SDS011;74709;53.128;18.020;2023-12-20T01:23:59;5.30;;;3.70;;
84345;SDS011;74709;53.128;18.020;2023-12-20T01:25:01;4.90;;;4.20;;
84345;SDS011;74709;53.128;18.020;2023-12-20T01:26:03;5.80;;;3.70;;
84345;SDS011;74709;53.128;18.020;2023-12-20T01:27:06;6.40;;;4.90;;
84345;SDS011;74709;53.128;18.020;2023-12-20T01:28:07;10.50;;;5.00;;
84345;SDS011;74709;53.128;18.020;2023-12-20T01:29:09;5.40;;;3.90;;
84345;SDS011;74709;53.128;18.020;2023-12-20T01:30:10;6.60;;;3.70;;
84345;SDS011;74709;53.128;18.020;2023-12-20T01:31:12;4.80;;;4.10;;
84345;SDS011;74709;53.128;18.020;2023-12-20T01:32:13;7.40;;;4.40;;
84345;SDS011;74709;53.128;18.020;2023-12-20T01:33:15;5.20;;;4.20;;
84345;SDS011;74709;53.128;18.020;2023-12-20T01:34:16;5.40;;;4.00;;
84345;SDS011;74709;53.128;18.020;2023-12-20T01:35:18;5.90;;;4.60;;
84345;SDS011;74709;53.128;18.020;2023-12-20T01:36:19;4.90;;;3.80;;
84345;SDS011;74709;53.128;18.020;2023-12-20T01:37:20;5.60;;;3.80;;
84345;SDS011;74709;53.128;18.020;2023-12-20T01:38:22;5.90;;;4.40;;
84345;SDS011;74709;53.128;18.020;2023-12-20T01:39:23;4.60;;;3.90;;
84345;SDS011;74709;53.128;18.020;2023-12-20T01:40:24;6.10;;;4.70;;
84345;SDS011;74709;53.128;18.020;2023-12-20T01:41:26;6.70;;;4.30;;
84345;SDS011;74709;53.128;18.020;2023-12-20T01:42:27;5.10;;;4.60;;
84345;SDS011;74709;53.128;18.020;2023-12-20T01:43:29;5.80;;;4.30;;
84345;SDS011;74709;53.128;18.020;2023-12-20T01:44:31;5.40;;;4.30;;
84345;SDS011;74709;53.128;18.020;2023-12-20T01:45:32;5.50;;;4.20;;
84345;SDS011;74709;53.128;18.020;2023-12-20T01:46:33;6.50;;;4.50;;
84345;SDS011;74709;53.128;18.020;2023-12-20T01:47:35;6.60;;;4.50;;
84345;SDS011;74709;53.128;18.020;2023-12-20T01:48:37;6.20;;;4.70;;
84345;SDS011;74709;53.128;18.020;2023-12-20T01:49:39;5.10;;;4.10;;
84345;SDS011;74709;53.128;18.020;2023-12-20T01:50:40;5.30;;;4.10;;
84345;SDS011;74709;53.128;18.020;2023-12-20T01:51:43;7.00;;;4.90;;
84345;SDS011;74709;53.128;18.020;2023-12-20T01:52:44;6.20;;;4.40;;
84345;SDS011;74709;53.128;18.020;2023-12-20T01:53:46;6.50;;;4.60;;
84345;SDS011;74709;53.128;18.020;2023-12-20T01:54:48;6.30;;;5.10;;
84345;SDS011;74709;53.128;18.020;2023-12-20T01:55:50;5.00;;;3.80;;
84345;SDS011;74709;53.128;18.020;2023-12-20T01:56:51;6.70;;;4.80;;
84345;SDS011;74709;53.128;18.020;2023-12-20T01:57:53;5.70;;;4.00;;
84345;SDS011;74709;53.128;18.020;2023-12-20T01:58:55;6.00;;;4.30;;
84345;SDS011;74709;53.128;18.020;2023-12-20T01:59:57;6.70;;;4.40;;
84345;SDS011;74709;53.128;18.020;2023-12-20T02:00:58;5.30;;;4.40;;
84345;SDS011;74709;53.128;18.020;2023-12-20T02:02:00;5.30;;;4.50;;
84345;SDS011;74709;53.128;18.020;2023-12-20T02:03:01;5.90;;;4.70;;
84345;SDS011;74709;53.128;18.020;2023-12-20T02:04:03;5.90;;;4.80;;
84345;SDS011;74709;53.128;18.020;2023-12-20T02:05:05;4.50;;;3.60;;
84345;SDS011;74709;53.128;18.020;2023-12-20T02:06:07;5.20;;;3.90;;
84345;SDS011;74709;53.128;18.020;2023-12-20T02:07:09;6.80;;;4.50;;
84345;SDS011;74709;53.128;18.020;2023-12-20T02:08:11;6.20;;;4.30;;
84345;SDS011;74709;53.128;18.020;2023-12-20T02:09:12;6.50;;;4.20;;
84345;SDS011;74709;53.128;18.020;2023-12-20T02:10:13;4.90;;;3.90;;
84345;SDS011;74709;53.128;18.020;2023-12-20T02:11:15;5.80;;;4.40;;
84345;SDS011;74709;53.128;18.020;2023-12-20T02:12:16;5.10;;;4.10;;
84345;SDS011;74709;53.128;18.020;2023-12-20T02:13:17;6.10;;;4.30;;
84345;SDS011;74709;53.128;18.020;2023-12-20T02:14:19;5.10;;;3.60;;
84345;SDS011;74709;53.128;18.020;2023-12-20T02:15:20;5.80;;;3.90;;
84345;SDS011;74709;53.128;18.020;2023-12-20T02:16:22;5.10;;;3.70;;
84345;SDS011;74709;53.128;18.020;2023-12-20T02:17:23;5.30;;;4.10;;
84345;SDS011;74709;53.128;18.020;2023-12-20T02:18:25;5.20;;;3.90;;
84345;SDS011;74709;53.128;18.020;2023-12-20T02:19:27;5.40;;;4.10;;
84345;SDS011;74709;53.128;18.020;2023-12-20T02:20:28;5.20;;;4.10;;
84345;SDS011;74709;53.128;18.020;2023-12-20T02:21:33;4.90;;;3.50;;
84345;SDS011;74709;53.128;18.020;2023-12-20T02:22:37;5.30;;;3.80;;
84345;SDS011;74709;53.128;18.020;2023-12-20T02:23:39;5.90;;;3.40;;
84345;SDS011;74709;53.128;18.020;2023-12-20T02:24:40;5.10;;;4.30;;
84345;SDS011;74709;53.128;18.020;2023-12-20T02:25:41;5.00;;;4.30;;
84345;SDS011;74709;53.128;18.020;2023-12-20T02:26:43;5.70;;;4.30;;
84345;SDS011;74709;53.128;18.020;2023-12-20T02:27:44;5.40;;;4.30;;
84345;SDS011;74709;53.128;18.020;2023-12-20T02:28:45;5.90;;;4.10;;
84345;SDS011;74709;53.128;18.020;2023-12-20T02:29:47;5.30;;;4.20;;
84345;SDS011;74709;53.128;18.020;2023-12-20T02:30:49;5.90;;;4.50;;
84345;SDS011;74709;53.128;18.020;2023-12-20T02:31:50;6.10;;;4.20;;
84345;SDS011;74709;53.128;18.020;2023-12-20T02:32:52;7.30;;;4.00;;
84345;SDS011;74709;53.128;18.020;2023-12-20T02:33:53;5.60;;;4.40;;
84345;SDS011;74709;53.128;18.020;2023-12-20T02:34:55;6.20;;;4.30;;
84345;SDS011;74709;53.128;18.020;2023-12-20T02:35:56;15.10;;;4.60;;
84345;SDS011;74709;53.128;18.020;2023-12-20T02:36:58;6.20;;;4.50;;
84345;SDS011;74709;53.128;18.020;2023-12-20T02:37:59;5.40;;;4.40;;
84345;SDS011;74709;53.128;18.020;2023-12-20T02:39:00;6.10;;;4.40;;
84345;SDS011;74709;53.128;18.020;2023-12-20T02:40:02;6.50;;;4.30;;
84345;SDS011;74709;53.128;18.020;2023-12-20T02:41:05;6.20;;;4.40;;
84345;SDS011;74709;53.128;18.020;2023-12-20T02:42:06;7.20;;;4.00;;
84345;SDS011;74709;53.128;18.020;2023-12-20T02:43:08;6.50;;;4.30;;
84345;SDS011;74709;53.128;18.020;2023-12-20T02:44:09;6.00;;;4.00;;
84345;SDS011;74709;53.128;18.020;2023-12-20T02:45:11;6.20;;;4.20;;
84345;SDS011;74709;53.128;18.020;2023-12-20T02:46:13;6.20;;;4.10;;
84345;SDS011;74709;53.128;18.020;2023-12-20T02:47:15;5.70;;;4.40;;
84345;SDS011;74709;53.128;18.020;2023-12-20T02:48:16;6.30;;;4.20;;
84345;SDS011;74709;53.128;18.020;2023-12-20T02:49:17;6.80;;;4.30;;
84345;SDS011;74709;53.128;18.020;2023-12-20T02:50:19;4.50;;;3.80;;
84345;SDS011;74709;53.128;18.020;2023-12-20T02:51:20;5.40;;;4.60;;
84345;SDS011;74709;53.128;18.020;2023-12-20T02:52:23;5.30;;;3.90;;
84345;SDS011;74709;53.128;18.020;2023-12-20T02:53:25;4.70;;;3.50;;
84345;SDS011;74709;53.128;18.020;2023-12-20T02:54:26;6.40;;;4.30;;
84345;SDS011;74709;53.128;18.020;2023-12-20T02:55:27;5.60;;;4.00;;
84345;SDS011;74709;53.128;18.020;2023-12-20T02:56:29;5.20;;;4.10;;
84345;SDS011;74709;53.128;18.020;2023-12-20T02:57:30;5.10;;;4.20;;
84345;SDS011;74709;53.128;18.020;2023-12-20T02:58:33;5.30;;;4.00;;
84345;SDS011;74709;53.128;18.020;2023-12-20T02:59:34;4.40;;;3.50;;
84345;SDS011;74709;53.128;18.020;2023-12-20T03:00:36;5.10;;;4.40;;
84345;SDS011;74709;53.128;18.020;2023-12-20T03:01:43;5.40;;;4.30;;
84345;SDS011;74709;53.128;18.020;2023-12-20T03:02:45;5.40;;;4.40;;
84345;SDS011;74709;53.128;18.020;2023-12-20T03:03:46;5.10;;;4.20;;
84345;SDS011;74709;53.128;18.020;2023-12-20T03:04:48;10.10;;;4.60;;
84345;SDS011;74709;53.128;18.020;2023-12-20T03:05:49;5.00;;;3.90;;
84345;SDS011;74709;53.128;18.020;2023-12-20T03:06:50;4.90;;;3.80;;
84345;SDS011;74709;53.128;18.020;2023-12-20T03:07:52;6.00;;;3.80;;
84345;SDS011;74709;53.128;18.020;2023-12-20T03:08:53;5.50;;;4.20;;
84345;SDS011;74709;53.128;18.020;2023-12-20T03:09:55;4.40;;;3.70;;
84345;SDS011;74709;53.128;18.020;2023-12-20T03:10:56;3.40;;;3.10;;
84345;SDS011;74709;53.128;18.020;2023-12-20T03:11:57;4.40;;;3.60;;
84345;SDS011;74709;53.128;18.020;2023-12-20T03:12:59;4.30;;;3.70;;
84345;SDS011;74709;53.128;18.020;2023-12-20T03:14:00;4.60;;;3.70;;
84345;SDS011;74709;53.128;18.020;2023-12-20T03:15:01;4.90;;;3.90;;
84345;SDS011;74709;53.128;18.020;2023-12-20T03:16:09;5.10;;;3.60;;
84345;SDS011;74709;53.128;18.020;2023-12-20T03:17:14;3.60;;;3.20;;
84345;SDS011;74709;53.128;18.020;2023-12-20T03:18:15;4.50;;;3.20;;
84345;SDS011;74709;53.128;18.020;2023-12-20T03:19:17;4.40;;;3.30;;
84345;SDS011;74709;53.128;18.020;2023-12-20T03:20:19;4.60;;;3.60;;
84345;SDS011;74709;53.128;18.020;2023-12-20T03:21:20;4.20;;;3.50;;
84345;SDS011;74709;53.128;18.020;2023-12-20T03:22:22;3.60;;;3.20;;
84345;SDS011;74709;53.128;18.020;2023-12-20T03:23:23;3.70;;;3.10;;
84345;SDS011;74709;53.128;18.020;2023-12-20T03:24:24;3.30;;;3.00;;
84345;SDS011;74709;53.128;18.020;2023-12-20T03:25:26;3.40;;;2.80;;
84345;SDS011;74709;53.128;18.020;2023-12-20T03:26:27;3.70;;;3.00;;
84345;SDS011;74709;53.128;18.020;2023-12-20T03:27:28;4.50;;;3.10;;
84345;SDS011;74709;53.128;18.020;2023-12-20T03:28:30;3.40;;;3.10;;
84345;SDS011;74709;53.128;18.020;2023-12-20T03:29:31;3.80;;;3.00;;
84345;SDS011;74709;53.128;18.020;2023-12-20T03:30:32;4.10;;;3.00;;
84345;SDS011;74709;53.128;18.020;2023-12-20T03:31:34;4.80;;;3.50;;
84345;SDS011;74709;53.128;18.020;2023-12-20T03:32:36;4.40;;;3.20;;
84345;SDS011;74709;53.128;18.020;2023-12-20T03:33:38;3.80;;;3.40;;
84345;SDS011;74709;53.128;18.020;2023-12-20T03:34:40;4.20;;;3.30;;
84345;SDS011;74709;53.128;18.020;2023-12-20T03:35:41;3.50;;;3.20;;
84345;SDS011;74709;53.128;18.020;2023-12-20T03:36:43;3.70;;;3.00;;
84345;SDS011;74709;53.128;18.020;2023-12-20T03:37:45;4.50;;;3.60;;
84345;SDS011;74709;53.128;18.020;2023-12-20T03:38:46;3.70;;;3.10;;
84345;SDS011;74709;53.128;18.020;2023-12-20T03:39:47;3.90;;;3.10;;
84345;SDS011;74709;53.128;18.020;2023-12-20T03:40:49;3.60;;;2.80;;
84345;SDS011;74709;53.128;18.020;2023-12-20T03:41:51;4.00;;;2.80;;
84345;SDS011;74709;53.128;18.020;2023-12-20T03:42:52;4.00;;;3.10;;
84345;SDS011;74709;53.128;18.020;2023-12-20T03:43:53;4.00;;;3.30;;
84345;SDS011;74709;53.128;18.020;2023-12-20T03:44:55;4.00;;;3.10;;
84345;SDS011;74709;53.128;18.020;2023-12-20T03:45:56;4.20;;;3.40;;
84345;SDS011;74709;53.128;18.020;2023-12-20T03:46:59;3.30;;;2.80;;
84345;SDS011;74709;53.128;18.020;2023-12-20T03:48:01;3.50;;;3.20;;
84345;SDS011;74709;53.128;18.020;2023-12-20T03:49:02;3.70;;;2.80;;
84345;SDS011;74709;53.128;18.020;2023-12-20T03:50:03;4.20;;;3.70;;
84345;SDS011;74709;53.128;18.020;2023-12-20T03:51:06;3.10;;;2.80;;
84345;SDS011;74709;53.128;18.020;2023-12-20T03:52:07;3.80;;;3.00;;
84345;SDS011;74709;53.128;18.020;2023-12-20T03:53:08;3.00;;;2.70;;
84345;SDS011;74709;53.128;18.020;2023-12-20T03:54:10;3.50;;;3.20;;
84345;SDS011;74709;53.128;18.020;2023-12-20T03:55:11;3.00;;;2.70;;
84345;SDS011;74709;53.128;18.020;2023-12-20T03:56:12;3.60;;;3.20;;
84345;SDS011;74709;53.128;18.020;2023-12-20T03:57:14;4.10;;;3.30;;
84345;SDS011;74709;53.128;18.020;2023-12-20T03:58:15;3.60;;;3.10;;
84345;SDS011;74709;53.128;18.020;2023-12-20T03:59:16;3.40;;;2.50;;
84345;SDS011;74709;53.128;18.020;2023-12-20T04:00:18;4.60;;;3.30;;
84345;SDS011;74709;53.128;18.020;2023-12-20T04:01:20;3.00;;;2.60;;
84345;SDS011;74709;53.128;18.020;2023-12-20T04:02:21;3.30;;;2.80;;
84345;SDS011;74709;53.128;18.020;2023-12-20T04:03:22;3.90;;;3.30;;
84345;SDS011;74709;53.128;18.020;2023-12-20T04:04:24;3.50;;;3.00;;
84345;SDS011;74709;53.128;18.020;2023-12-20T04:05:25;3.40;;;2.50;;
84345;SDS011;74709;53.128;18.020;2023-12-20T04:06:26;4.10;;;3.20;;
84345;SDS011;74709;53.128;18.020;2023-12-20T04:07:28;3.50;;;2.40;;
84345;SDS011;74709;53.128;18.020;2023-12-20T04:08:29;4.40;;;2.80;;
84345;SDS011;74709;53.128;18.020;2023-12-20T04:09:30;2.90;;;2.50;;
84345;SDS011;74709;53.128;18.020;2023-12-20T04:10:32;3.10;;;2.70;;
84345;SDS011;74709;53.128;18.020;2023-12-20T04:11:33;3.00;;;2.70;;
84345;SDS011;74709;53.128;18.020;2023-12-20T04:12:34;3.00;;;2.40;;
84345;SDS011;74709;53.128;18.020;2023-12-20T04:13:36;3.20;;;2.90;;
84345;SDS011;74709;53.128;18.020;2023-12-20T04:14:37;3.10;;;2.30;;
84345;SDS011;74709;53.128;18.020;2023-12-20T04:15:39;3.10;;;2.30;;
84345;SDS011;74709;53.128;18.020;2023-12-20T04:16:40;3.10;;;2.80;;
84345;SDS011;74709;53.128;18.020;2023-12-20T04:17:42;2.70;;;2.20;;
84345;SDS011;74709;53.128;18.020;2023-12-20T04:18:43;2.90;;;2.50;;
84345;SDS011;74709;53.128;18.020;2023-12-20T04:19:44;3.10;;;2.70;;
84345;SDS011;74709;53.128;18.020;2023-12-20T04:20:46;2.90;;;2.40;;
84345;SDS011;74709;53.128;18.020;2023-12-20T04:21:47;3.10;;;2.50;;
84345;SDS011;74709;53.128;18.020;2023-12-20T04:22:48;2.50;;;2.20;;
84345;SDS011;74709;53.128;18.020;2023-12-20T04:23:50;3.10;;;2.20;;
84345;SDS011;74709;53.128;18.020;2023-12-20T04:24:51;2.90;;;2.30;;
84345;SDS011;74709;53.128;18.020;2023-12-20T04:25:53;2.70;;;2.20;;
84345;SDS011;74709;53.128;18.020;2023-12-20T04:26:55;2.70;;;2.40;;
84345;SDS011;74709;53.128;18.020;2023-12-20T04:27:56;2.40;;;2.20;;
84345;SDS011;74709;53.128;18.020;2023-12-20T04:28:58;2.90;;;2.60;;
84345;SDS011;74709;53.128;18.020;2023-12-20T04:29:59;3.40;;;2.60;;
84345;SDS011;74709;53.128;18.020;2023-12-20T04:31:01;3.80;;;2.30;;
84345;SDS011;74709;53.128;18.020;2023-12-20T04:32:02;2.90;;;2.20;;
84345;SDS011;74709;53.128;18.020;2023-12-20T04:33:04;2.80;;;2.40;;
84345;SDS011;74709;53.128;18.020;2023-12-20T04:34:06;2.90;;;2.30;;
84345;SDS011;74709;53.128;18.020;2023-12-20T04:35:07;3.20;;;2.50;;
84345;SDS011;74709;53.128;18.020;2023-12-20T04:36:09;3.30;;;2.30;;
84345;SDS011;74709;53.128;18.020;2023-12-20T04:37:11;3.40;;;2.50;;
84345;SDS011;74709;53.128;18.020;2023-12-20T04:38:13;2.80;;;2.50;;
84345;SDS011;74709;53.128;18.020;2023-12-20T04:39:14;3.10;;;2.40;;
84345;SDS011;74709;53.128;18.020;2023-12-20T04:40:16;3.10;;;2.40;;
84345;SDS011;74709;53.128;18.020;2023-12-20T04:41:17;3.50;;;2.20;;
84345;SDS011;74709;53.128;18.020;2023-12-20T04:42:19;3.70;;;2.50;;
84345;SDS011;74709;53.128;18.020;2023-12-20T04:43:21;2.90;;;2.10;;
84345;SDS011;74709;53.128;18.020;2023-12-20T04:44:22;3.10;;;2.10;;
84345;SDS011;74709;53.128;18.020;2023-12-20T04:45:24;2.70;;;1.70;;
84345;SDS011;74709;53.128;18.020;2023-12-20T04:46:26;2.90;;;2.30;;
84345;SDS011;74709;53.128;18.020;2023-12-20T04:47:27;2.40;;;2.00;;
84345;SDS011;74709;53.128;18.020;2023-12-20T04:48:28;2.60;;;1.70;;
84345;SDS011;74709;53.128;18.020;2023-12-20T04:49:30;2.50;;;1.80;;
84345;SDS011;74709;53.128;18.020;2023-12-20T04:50:31;2.00;;;1.80;;
84345;SDS011;74709;53.128;18.020;2023-12-20T04:51:33;2.20;;;1.90;;
84345;SDS011;74709;53.128;18.020;2023-12-20T04:52:35;4.40;;;2.30;;
84345;SDS011;74709;53.128;18.020;2023-12-20T04:53:36;2.30;;;1.90;;
84345;SDS011;74709;53.128;18.020;2023-12-20T04:54:38;2.30;;;1.90;;
84345;SDS011;74709;53.128;18.020;2023-12-20T04:55:39;2.70;;;1.80;;
84345;SDS011;74709;53.128;18.020;2023-12-20T04:56:41;2.50;;;1.90;;
84345;SDS011;74709;53.128;18.020;2023-12-20T04:57:42;3.00;;;1.90;;
84345;SDS011;74709;53.128;18.020;2023-12-20T04:58:44;3.10;;;1.90;;
84345;SDS011;74709;53.128;18.020;2023-12-20T04:59:45;3.30;;;2.20;;
84345;SDS011;74709;53.128;18.020;2023-12-20T05:00:46;3.00;;;2.00;;
84345;SDS011;74709;53.128;18.020;2023-12-20T05:01:48;2.70;;;2.20;;
84345;SDS011;74709;53.128;18.020;2023-12-20T05:02:49;5.80;;;2.10;;
84345;SDS011;74709;53.128;18.020;2023-12-20T05:03:51;5.60;;;2.50;;
84345;SDS011;74709;53.128;18.020;2023-12-20T05:04:52;3.00;;;2.30;;
84345;SDS011;74709;53.128;18.020;2023-12-20T05:05:53;3.10;;;1.90;;
84345;SDS011;74709;53.128;18.020;2023-12-20T05:06:55;4.20;;;2.40;;
84345;SDS011;74709;53.128;18.020;2023-12-20T05:07:56;4.40;;;3.00;;
84345;SDS011;74709;53.128;18.020;2023-12-20T05:08:58;5.10;;;2.80;;
84345;SDS011;74709;53.128;18.020;2023-12-20T05:09:59;4.70;;;2.80;;
84345;SDS011;74709;53.128;18.020;2023-12-20T05:11:00;4.50;;;2.70;;
84345;SDS011;74709;53.128;18.020;2023-12-20T05:12:02;5.40;;;3.70;;
84345;SDS011;74709;53.128;18.020;2023-12-20T05:13:04;5.70;;;2.80;;
84345;SDS011;74709;53.128;18.020;2023-12-20T05:14:05;5.10;;;3.40;;
84345;SDS011;74709;53.128;18.020;2023-12-20T05:15:07;5.20;;;3.40;;
84345;SDS011;74709;53.128;18.020;2023-12-20T05:16:08;4.00;;;3.30;;
84345;SDS011;74709;53.128;18.020;2023-12-20T05:17:10;4.80;;;2.90;;
84345;SDS011;74709;53.128;18.020;2023-12-20T05:18:11;4.50;;;3.00;;
84345;SDS011;74709;53.128;18.020;2023-12-20T05:19:13;4.50;;;2.80;;
84345;SDS011;74709;53.128;18.020;2023-12-20T05:20:15;4.50;;;2.80;;
84345;SDS011;74709;53.128;18.020;2023-12-20T05:21:17;4.40;;;3.30;;
84345;SDS011;74709;53.128;18.020;2023-12-20T05:22:21;3.90;;;2.80;;
84345;SDS011;74709;53.128;18.020;2023-12-20T05:23:22;3.70;;;2.90;;
84345;SDS011;74709;53.128;18.020;2023-12-20T05:24:24;4.00;;;2.20;;
84345;SDS011;74709;53.128;18.020;2023-12-20T05:25:25;4.60;;;2.40;;
84345;SDS011;74709;53.128;18.020;2023-12-20T05:26:29;3.70;;;2.30;;
84345;SDS011;74709;53.128;18.020;2023-12-20T05:27:31;3.30;;;2.40;;
84345;SDS011;74709;53.128;18.020;2023-12-20T05:28:33;3.10;;;2.40;;
84345;SDS011;74709;53.128;18.020;2023-12-20T05:29:34;2.60;;;2.20;;
84345;SDS011;74709;53.128;18.020;2023-12-20T05:30:35;2.90;;;2.10;;
84345;SDS011;74709;53.128;18.020;2023-12-20T05:31:37;4.60;;;2.60;;
84345;SDS011;74709;53.128;18.020;2023-12-20T05:32:39;3.90;;;2.80;;
84345;SDS011;74709;53.128;18.020;2023-12-20T05:33:40;2.80;;;2.40;;
84345;SDS011;74709;53.128;18.020;2023-12-20T05:34:42;3.60;;;2.10;;
84345;SDS011;74709;53.128;18.020;2023-12-20T05:35:43;4.30;;;2.80;;
84345;SDS011;74709;53.128;18.020;2023-12-20T05:36:44;2.50;;;2.20;;
84345;SDS011;74709;53.128;18.020;2023-12-20T05:37:46;3.20;;;2.40;;
84345;SDS011;74709;53.128;18.020;2023-12-20T05:38:48;3.90;;;2.30;;
84345;SDS011;74709;53.128;18.020;2023-12-20T05:39:49;3.50;;;2.60;;
84345;SDS011;74709;53.128;18.020;2023-12-20T05:40:50;3.70;;;2.50;;
84345;SDS011;74709;53.128;18.020;2023-12-20T05:41:52;3.50;;;2.20;;
84345;SDS011;74709;53.128;18.020;2023-12-20T05:42:53;5.30;;;3.20;;
84345;SDS011;74709;53.128;18.020;2023-12-20T05:43:55;3.90;;;2.60;;
84345;SDS011;74709;53.128;18.020;2023-12-20T05:44:56;4.40;;;2.80;;
84345;SDS011;74709;53.128;18.020;2023-12-20T05:45:57;4.90;;;2.90;;
84345;SDS011;74709;53.128;18.020;2023-12-20T05:46:59;5.50;;;3.10;;
84345;SDS011;74709;53.128;18.020;2023-12-20T05:48:00;4.70;;;3.10;;
84345;SDS011;74709;53.128;18.020;2023-12-20T05:49:02;6.50;;;3.20;;
84345;SDS011;74709;53.128;18.020;2023-12-20T05:50:03;7.20;;;3.60;;
84345;SDS011;74709;53.128;18.020;2023-12-20T05:51:05;5.40;;;3.60;;
84345;SDS011;74709;53.128;18.020;2023-12-20T05:52:06;7.10;;;3.40;;
84345;SDS011;74709;53.128;18.020;2023-12-20T05:53:08;5.00;;;3.30;;
84345;SDS011;74709;53.128;18.020;2023-12-20T05:54:09;5.90;;;4.10;;
84345;SDS011;74709;53.128;18.020;2023-12-20T05:55:10;6.50;;;3.70;;
84345;SDS011;74709;53.128;18.020;2023-12-20T05:56:12;6.00;;;3.50;;
84345;SDS011;74709;53.128;18.020;2023-12-20T05:57:13;8.50;;;4.30;;
84345;SDS011;74709;53.128;18.020;2023-12-20T05:58:15;5.70;;;4.10;;
84345;SDS011;74709;53.128;18.020;2023-12-20T05:59:16;7.40;;;3.80;;
84345;SDS011;74709;53.128;18.020;2023-12-20T06:00:18;5.20;;;3.80;;
84345;SDS011;74709;53.128;18.020;2023-12-20T06:01:19;6.40;;;4.40;;
84345;SDS011;74709;53.128;18.020;2023-12-20T06:02:20;7.90;;;4.30;;
84345;SDS011;74709;53.128;18.020;2023-12-20T06:03:22;7.50;;;4.60;;
84345;SDS011;74709;53.128;18.020;2023-12-20T06:04:23;7.40;;;4.20;;
84345;SDS011;74709;53.128;18.020;2023-12-20T06:05:24;9.00;;;3.80;;